createdAt,value
2019-03-06T00:04:39.433Z,6.10
2019-03-06T00:09:30.818Z,5.50
2019-03-06T00:14:24.517Z,6.90
2019-03-06T00:19:18.149Z,6.70
2019-03-06T00:24:11.781Z,7.80
2019-03-06T00:29:03.188Z,6.00
2019-03-06T00:33:54.555Z,7.10
2019-03-06T00:38:45.962Z,6.60
2019-03-06T00:43:39.584Z,7.40
2019-03-06T00:48:31.024Z,6.70
2019-03-06T00:53:22.390Z,7.10
2019-03-06T00:58:16.060Z,7.00
2019-03-06T01:03:07.410Z,7.30
2019-03-06T01:07:58.795Z,6.10
2019-03-06T01:12:50.161Z,6.00
2019-03-06T01:17:41.604Z,5.80
2019-03-06T01:22:32.948Z,8.10
2019-03-06T01:27:24.326Z,8.90
2019-03-06T01:32:15.743Z,6.00
2019-03-06T01:37:07.091Z,7.10
2019-03-06T01:41:58.538Z,6.60
2019-03-06T01:46:49.942Z,6.40
2019-03-06T01:51:43.570Z,9.20
2019-03-06T01:56:34.964Z,8.20
2019-03-06T02:01:26.379Z,7.00
2019-03-06T02:06:20.046Z,8.90
2019-03-06T02:11:11.452Z,7.80
2019-03-06T02:16:02.816Z,7.40
2019-03-06T02:20:54.187Z,8.00
2019-03-06T02:25:45.586Z,7.80
2019-03-06T02:30:39.265Z,7.50
2019-03-06T02:35:30.601Z,8.00
2019-03-06T02:40:22.019Z,9.20
2019-03-06T02:45:13.404Z,8.80
2019-03-06T02:50:04.801Z,9.90
2019-03-06T02:54:58.503Z,8.30
2019-03-06T02:59:49.876Z,11.30
2019-03-06T03:04:41.224Z,13.30
2019-03-06T03:09:32.615Z,12.70
2019-03-06T03:14:24.036Z,12.80
2019-03-06T03:19:15.385Z,11.30
2019-03-06T03:24:09.052Z,10.00
2019-03-06T03:29:00.458Z,11.80
2019-03-06T03:33:51.868Z,10.80
2019-03-06T03:38:43.246Z,13.60
2019-03-06T03:43:36.894Z,10.00
2019-03-06T03:48:28.318Z,10.20
2019-03-06T03:53:19.712Z,13.10
2019-03-06T03:58:11.045Z,11.60
2019-03-06T04:03:02.501Z,10.50
2019-03-06T04:07:53.857Z,11.70
2019-03-06T04:12:45.336Z,12.10
2019-03-06T04:17:36.694Z,11.90
2019-03-06T04:22:28.107Z,10.40
2019-03-06T04:27:19.501Z,10.00
2019-03-06T04:32:10.944Z,11.00
2019-03-06T04:37:02.341Z,10.20
2019-03-06T04:41:53.685Z,10.40
2019-03-06T04:46:45.057Z,9.90
2019-03-06T04:51:36.437Z,9.70
2019-03-06T04:56:30.114Z,10.50
2019-03-06T05:01:21.457Z,11.00
2019-03-06T05:06:15.249Z,9.40
2019-03-06T05:11:06.658Z,9.40
2019-03-06T05:15:58.024Z,9.50
2019-03-06T05:20:49.518Z,8.80
2019-03-06T05:25:43.125Z,7.80
2019-03-06T05:30:34.505Z,9.20
2019-03-06T05:35:25.912Z,9.10
2019-03-06T05:40:17.305Z,9.80
2019-03-06T05:45:08.699Z,10.50
2019-03-06T05:50:00.117Z,9.90
2019-03-06T05:54:51.510Z,10.90
2019-03-06T05:59:42.927Z,12.00
2019-03-06T06:04:34.355Z,10.40
2019-03-06T06:09:25.731Z,9.20
2019-03-06T06:14:19.409Z,10.30
2019-03-06T06:19:10.783Z,9.70
2019-03-06T06:24:02.202Z,10.80
2019-03-06T06:28:53.526Z,11.50
2019-03-06T06:33:44.989Z,11.30
2019-03-06T06:38:37.473Z,11.90
2019-03-06T06:43:30.041Z,9.70
2019-03-06T06:48:21.514Z,10.40
2019-03-06T06:53:12.917Z,10.70
2019-03-06T06:58:04.295Z,12.10
2019-03-06T07:02:55.722Z,10.80
2019-03-06T07:07:47.080Z,10.40
2019-03-06T07:12:38.499Z,8.90
2019-03-06T07:17:29.911Z,8.20
2019-03-06T07:22:21.297Z,7.20
2019-03-06T07:27:12.729Z,6.90
2019-03-06T07:32:04.117Z,7.80
2019-03-06T07:36:55.459Z,5.80
2019-03-06T07:41:46.844Z,7.00
2019-03-06T07:46:38.226Z,6.30
2019-03-06T07:51:31.271Z,7.10
2019-03-06T07:56:21.111Z,7.20
2019-03-06T08:01:16.949Z,7.10
2019-03-06T08:06:03.911Z,7.00
2019-03-06T08:10:55.270Z,6.50
2019-03-06T08:15:46.680Z,5.10
2019-03-06T08:20:38.131Z,5.20
2019-03-06T08:25:29.472Z,4.50
2019-03-06T08:30:20.855Z,3.70
2019-03-06T08:35:12.294Z,3.90
2019-03-06T08:40:03.721Z,3.60
2019-03-06T08:44:55.117Z,4.10
2019-03-06T08:49:46.568Z,4.90
2019-03-06T08:54:37.940Z,3.80
2019-03-06T08:59:29.334Z,3.90
2019-03-06T09:04:20.724Z,4.60
2019-03-06T09:09:12.101Z,3.50
2019-03-06T09:14:03.533Z,3.30
2019-03-06T09:18:54.968Z,3.30
2019-03-06T09:23:46.333Z,3.00
2019-03-06T09:28:37.714Z,3.20
2019-03-06T09:33:29.146Z,3.10
2019-03-06T09:38:20.495Z,3.10
2019-03-06T09:43:11.879Z,3.60
2019-03-06T09:48:03.303Z,3.00
2019-03-06T09:52:54.702Z,3.20
2019-03-06T09:57:46.085Z,3.50
2019-03-06T10:02:37.486Z,3.80
2019-03-06T10:07:31.121Z,2.00
2019-03-06T10:12:22.613Z,2.40
2019-03-06T10:17:13.969Z,1.90
2019-03-06T10:22:05.395Z,1.60
2019-03-06T10:26:56.781Z,2.10
2019-03-06T10:31:48.207Z,3.30
2019-03-06T10:36:39.593Z,1.90
2019-03-06T10:41:30.995Z,2.20
2019-03-06T10:46:22.336Z,1.70
2019-03-06T10:51:13.747Z,2.50
2019-03-06T10:56:05.149Z,2.00
2019-03-06T11:00:56.514Z,2.20
2019-03-06T11:05:47.971Z,1.90
2019-03-06T11:10:41.600Z,1.60
2019-03-06T11:15:32.976Z,2.30
2019-03-06T11:20:24.396Z,1.90
2019-03-06T11:25:15.803Z,2.10
2019-03-06T11:30:07.196Z,3.00
2019-03-06T11:35:00.836Z,1.80
2019-03-06T11:39:52.225Z,2.20
2019-03-06T11:44:43.607Z,2.40
2019-03-06T11:49:34.974Z,2.40
2019-03-06T11:54:28.641Z,2.30
2019-03-06T11:59:22.358Z,3.70
2019-03-06T12:04:13.731Z,2.00
2019-03-06T12:09:07.426Z,1.80
2019-03-06T12:14:01.090Z,1.70
2019-03-06T12:18:52.456Z,2.10
2019-03-06T12:23:43.861Z,2.40
2019-03-06T12:28:35.229Z,2.30
2019-03-06T12:33:26.616Z,1.60
2019-03-06T12:38:18.034Z,2.60
2019-03-06T12:43:09.448Z,2.30
2019-03-06T12:48:00.837Z,2.50
2019-03-06T12:52:58.987Z,2.00
2019-03-06T12:57:58.918Z,3.40
2019-03-06T13:02:41.767Z,2.50
2019-03-06T13:07:33.196Z,1.90
2019-03-06T13:12:24.567Z,1.70
2019-03-06T13:17:18.222Z,1.70
2019-03-06T13:22:11.217Z,6.40
2019-03-06T13:27:00.983Z,1.60
2019-03-06T13:31:52.384Z,1.90
2019-03-06T13:36:43.756Z,2.70
2019-03-06T13:41:35.175Z,1.40
2019-03-06T13:46:26.474Z,1.70
2019-03-06T13:51:20.168Z,1.40
2019-03-06T13:56:11.551Z,1.90
2019-03-06T14:01:05.235Z,2.60
2019-03-06T14:05:56.625Z,2.00
2019-03-06T14:10:48.043Z,1.90
2019-03-06T14:15:39.478Z,2.00
2019-03-06T14:20:30.795Z,2.10
2019-03-06T14:25:22.160Z,2.20
2019-03-06T14:30:13.589Z,1.70
2019-03-06T14:35:04.942Z,2.70
2019-03-06T14:39:56.917Z,2.20
2019-03-06T14:44:47.724Z,2.10
2019-03-06T14:49:39.106Z,2.00
2019-03-06T14:54:30.468Z,1.80
2019-03-06T14:59:21.888Z,2.80
2019-03-06T15:04:13.283Z,3.80
2019-03-06T15:09:04.667Z,2.20
2019-03-06T15:13:55.991Z,2.30
2019-03-06T15:18:49.706Z,2.00
2019-03-06T15:23:41.053Z,2.80
2019-03-06T15:28:32.449Z,4.30
2019-03-06T15:33:23.841Z,2.70
2019-03-06T15:38:15.230Z,2.20
2019-03-06T15:43:06.680Z,3.60
2019-03-06T15:48:00.247Z,2.00
2019-03-06T15:52:51.688Z,2.30
2019-03-06T15:57:43.069Z,3.40
2019-03-06T16:02:34.471Z,3.40
2019-03-06T16:07:25.863Z,2.80
2019-03-06T16:12:19.455Z,2.50
2019-03-06T16:17:10.866Z,2.40
2019-03-06T16:22:02.292Z,3.10
2019-03-06T16:26:58.159Z,2.80
2019-03-06T16:31:51.912Z,2.10
2019-03-06T16:36:43.256Z,2.70
2019-03-06T16:41:34.668Z,2.20
2019-03-06T16:46:26.017Z,3.10
2019-03-06T16:51:17.443Z,3.50
2019-03-06T16:56:08.776Z,2.80
2019-03-06T17:01:02.478Z,2.80
2019-03-06T17:05:54.654Z,2.50
2019-03-06T17:10:45.328Z,4.40
2019-03-06T17:15:36.644Z,3.20
2019-03-06T17:20:27.999Z,3.80
2019-03-06T17:25:19.441Z,4.20
2019-03-06T17:30:10.794Z,3.60
2019-03-06T17:35:02.244Z,3.80
2019-03-06T17:39:53.646Z,3.00
2019-03-06T17:44:45.060Z,4.30
2019-03-06T17:49:36.408Z,2.80
2019-03-06T17:54:30.115Z,3.60
2019-03-06T17:59:21.517Z,3.30
2019-03-06T18:04:12.921Z,5.50
2019-03-06T18:09:06.545Z,3.10
2019-03-06T18:13:57.999Z,3.90
2019-03-06T18:18:49.363Z,5.60
2019-03-06T18:23:40.715Z,4.20
2019-03-06T18:28:32.124Z,3.80
2019-03-06T18:33:23.531Z,5.10
2019-03-06T18:38:14.983Z,4.80
2019-03-06T18:43:06.343Z,3.50
2019-03-06T18:47:57.715Z,3.20
2019-03-06T18:52:49.128Z,4.40
2019-03-06T18:57:40.572Z,3.20
2019-03-06T19:02:31.936Z,3.30
2019-03-06T19:07:23.352Z,5.20
2019-03-06T19:12:14.757Z,3.50
2019-03-06T19:17:06.168Z,3.40
2019-03-06T19:21:57.570Z,5.00
2019-03-06T19:26:51.262Z,3.40
2019-03-06T19:31:42.613Z,2.80
2019-03-06T19:36:34.043Z,2.90
2019-03-06T19:41:27.673Z,3.50
2019-03-06T19:46:19.150Z,3.50
2019-03-06T19:51:11.465Z,3.20
2019-03-06T19:56:04.193Z,4.10
2019-03-06T20:00:55.575Z,3.30
2019-03-06T20:05:49.249Z,3.40
2019-03-06T20:10:40.707Z,3.10
2019-03-06T20:15:32.104Z,3.10
2019-03-06T20:20:23.364Z,3.20
2019-03-06T20:25:17.067Z,3.30
2019-03-06T20:30:08.460Z,2.80
2019-03-06T20:34:59.898Z,5.20
2019-03-06T20:39:55.782Z,2.40
2019-03-06T20:44:47.206Z,3.60
2019-03-06T20:49:38.613Z,2.70
2019-03-06T20:54:30.041Z,3.50
2019-03-06T20:59:21.381Z,2.80
2019-03-06T21:04:15.108Z,5.90
2019-03-06T21:09:08.678Z,2.80
2019-03-06T21:14:00.114Z,3.50
2019-03-06T21:18:51.434Z,3.20
2019-03-06T21:23:45.135Z,5.40
2019-03-06T21:28:36.586Z,3.90
2019-03-06T21:33:30.291Z,3.60
2019-03-06T21:38:21.627Z,3.20
2019-03-06T21:43:15.310Z,3.30
2019-03-06T21:48:06.691Z,4.70
2019-03-06T21:52:58.106Z,7.20
2019-03-06T21:57:58.691Z,6.10
2019-03-06T22:02:52.462Z,3.80
2019-03-06T22:07:43.804Z,3.40
2019-03-06T22:12:35.185Z,3.40
2019-03-06T22:17:28.856Z,3.10
2019-03-06T22:22:20.237Z,3.90
2019-03-06T22:27:11.654Z,4.50
2019-03-06T22:32:05.324Z,3.20
2019-03-06T22:36:56.756Z,4.40
2019-03-06T22:41:48.116Z,3.80
2019-03-06T22:46:39.544Z,4.10
2019-03-06T22:51:33.131Z,3.50
2019-03-06T22:56:24.604Z,4.30
2019-03-06T23:01:15.944Z,5.30
2019-03-06T23:06:09.661Z,4.70
2019-03-06T23:11:01.175Z,4.60
2019-03-06T23:15:54.859Z,4.10
2019-03-06T23:20:46.233Z,4.70
2019-03-06T23:25:37.668Z,3.80
2019-03-06T23:30:33.590Z,4.10
2019-03-06T23:35:24.978Z,4.40
2019-03-06T23:40:16.419Z,4.70
2019-03-06T23:45:07.853Z,4.50
2019-03-06T23:49:59.246Z,4.40
2019-03-06T23:54:52.957Z,3.50
2019-03-06T23:59:44.344Z,3.90
